Orlando, FL (32801)

8:27 PM EST on February 11, 2016 (GMT -0500)
WFTV, Channel 9 | | Change Station
CLOSE
Current Station
Personal Weather Station
Location: Orlando, FL
Elevation: 92 ft
Nearby Weather Stations

Elev 92 ft 28.54 °N, 81.37 °W | Updated 19 seconds ago

Clear
Clear
56.7 °F
Feels Like 56.7 °F
N
0.0
Wind Variable Wind from South
Gusts 0.0 mph

Today
High -- | Low -- °F
--% Chance of Precip.
Yesterday
High -- | Low -- °F
Precip. -- in
Pressure 30.28 in
Visibility 10.0 miles
Clouds Clear
Dew Point 42 °F
Humidity 58%
Rainfall 0.00 in
Snow Depth Not available.
7:07 AM 6:12 PM
Waxing Crescent, 16% visible
METAR KORL 120053Z 18006KT 10SM CLR 15/03 A3026 RMK AO2 SLP253 T01500033
Pressure 30.28 in
Visibility 10.0 miles
Clouds Clear
Dew Point 42 °F
Humidity 58%
Rainfall 0.00 in
Snow Depth Not available.
7:07 AM 6:12 PM
Waxing Crescent, 16% visible
METAR KORL 120053Z 18006KT 10SM CLR 15/03 A3026 RMK AO2 SLP253 T01500033

10-Day Weather Forecast

Almanac

Astronomy

Feb. 11, 2016 Rise Set
Actual Time
Civil Twilight
Nautical Twilight
Astronomical Twilight
Moon
Length of Visible Light
Length of Day
Tomorrow will be .
, % of the Moon is Illuminated

Today's Extremes

State Highs State Lows

Community

WunderPhotos

Upload Photos

1,892,205 photos uploaded!

WunderBlog® & News

Nearby

Air Quality

  Air Quality AQ Index Pollutant
Not available.

Snow Depth

Station Depth Elevation

Earthquake Activity

City Distance Mag. Time & Date
Minimum magnitude displayed is 2.5.

Coastal Water Temperatures

Place Temperature

Stations

Nearby Weather Stations

Station Location Temp. Windchill Dew Point Humidity Wind Precip. Elev Updated Type
                   

Watches & Warnings

There are currently no watches in effect.